<?xml version="1.0" encoding="UTF-8" standalone="no" ?>
<gpx xmlns="http://www.topografix.com/GPX/1/1" xmlns:xsi="http://www.w3.org/2001/XMLSchema-instance" xsi:schemaLocation="http://www.topografix.com/GPX/1/1 http://www.topografix.com/GPX/1/1/gpx.xsd" version="1.1" creator="VisuGPX - https://www.visugpx.com">
  <metadata>
    <name>les trois randonnées BS MS PS </name>
  </metadata>
  <trk>
    <name><![CDATA[10696889-Morogues-Sncerre_2020]]></name>
    <trkseg>
      <trkpt lat="47.24309" lon="2.59241">
        <ele>239</ele>
        <time>2019-11-14T16:48:03Z</time>
      </trkpt>
      <trkpt lat="47.24312" lon="2.59328">
        <ele>234</ele>
        <time>2019-11-14T16:49:22Z</time>
      </trkpt>
      <trkpt lat="47.24295" lon="2.59371">
        <ele>233</ele>
        <time>2019-11-14T16:50:07Z</time>
      </trkpt>
      <trkpt lat="47.24277" lon="2.59439">
        <ele>230</ele>
        <time>2019-11-14T16:51:13Z</time>
      </trkpt>
      <trkpt lat="47.24247" lon="2.59485">
        <ele>230</ele>
        <time>2019-11-14T16:52:11Z</time>
      </trkpt>
      <trkpt lat="47.24217" lon="2.59544">
        <ele>226</ele>
        <time>2019-11-14T16:53:18Z</time>
      </trkpt>
      <trkpt lat="47.24179" lon="2.59623">
        <ele>223</ele>
        <time>2019-11-14T16:54:45Z</time>
      </trkpt>
      <trkpt lat="47.24139" lon="2.59752">
        <ele>221</ele>
        <time>2019-11-14T16:56:54Z</time>
      </trkpt>
      <trkpt lat="47.24119" lon="2.5988">
        <ele>218</ele>
        <time>2019-11-14T16:58:53Z</time>
      </trkpt>
      <trkpt lat="47.24163" lon="2.59864">
        <ele>217</ele>
        <time>2019-11-14T16:59:53Z</time>
      </trkpt>
      <trkpt lat="47.24215" lon="2.59881">
        <ele>215</ele>
        <time>2019-11-14T17:01:04Z</time>
      </trkpt>
      <trkpt lat="47.24329" lon="2.59885">
        <ele>217</ele>
        <time>2019-11-14T17:03:37Z</time>
      </trkpt>
      <trkpt lat="47.24403" lon="2.5987">
        <ele>219</ele>
        <time>2019-11-14T17:05:16Z</time>
      </trkpt>
      <trkpt lat="47.24424" lon="2.59875">
        <ele>220</ele>
        <time>2019-11-14T17:05:45Z</time>
      </trkpt>
      <trkpt lat="47.24448" lon="2.59891">
        <ele>222</ele>
        <time>2019-11-14T17:06:20Z</time>
      </trkpt>
      <trkpt lat="47.24472" lon="2.59908">
        <ele>224</ele>
        <time>2019-11-14T17:06:55Z</time>
      </trkpt>
      <trkpt lat="47.24487" lon="2.59927">
        <ele>225</ele>
        <time>2019-11-14T17:07:22Z</time>
      </trkpt>
      <trkpt lat="47.24511" lon="2.59952">
        <ele>226</ele>
        <time>2019-11-14T17:08:01Z</time>
      </trkpt>
      <trkpt lat="47.24538" lon="2.59984">
        <ele>229</ele>
        <time>2019-11-14T17:08:47Z</time>
      </trkpt>
      <trkpt lat="47.24574" lon="2.60026">
        <ele>232</ele>
        <time>2019-11-14T17:09:49Z</time>
      </trkpt>
      <trkpt lat="47.24642" lon="2.60096">
        <ele>237</ele>
        <time>2019-11-14T17:11:39Z</time>
      </trkpt>
      <trkpt lat="47.24668" lon="2.6012">
        <ele>239</ele>
        <time>2019-11-14T17:12:20Z</time>
      </trkpt>
      <trkpt lat="47.24729" lon="2.60159">
        <ele>243</ele>
        <time>2019-11-14T17:13:49Z</time>
      </trkpt>
      <trkpt lat="47.2478" lon="2.60185">
        <ele>245</ele>
        <time>2019-11-14T17:15:01Z</time>
      </trkpt>
      <trkpt lat="47.24805" lon="2.60205">
        <ele>245</ele>
        <time>2019-11-14T17:15:39Z</time>
      </trkpt>
      <trkpt lat="47.24826" lon="2.60218">
        <ele>246</ele>
        <time>2019-11-14T17:16:09Z</time>
      </trkpt>
      <trkpt lat="47.24853" lon="2.60223">
        <ele>247</ele>
        <time>2019-11-14T17:16:46Z</time>
      </trkpt>
      <trkpt lat="47.24905" lon="2.60238">
        <ele>251</ele>
        <time>2019-11-14T17:17:56Z</time>
      </trkpt>
      <trkpt lat="47.24942" lon="2.60243">
        <ele>253</ele>
        <time>2019-11-14T17:18:46Z</time>
      </trkpt>
      <trkpt lat="47.2497" lon="2.60244">
        <ele>255</ele>
        <time>2019-11-14T17:19:23Z</time>
      </trkpt>
      <trkpt lat="47.25007" lon="2.60266">
        <ele>256</ele>
        <time>2019-11-14T17:20:17Z</time>
      </trkpt>
      <trkpt lat="47.25027" lon="2.60298">
        <ele>255</ele>
        <time>2019-11-14T17:20:56Z</time>
      </trkpt>
      <trkpt lat="47.25078" lon="2.60394">
        <ele>252</ele>
        <time>2019-11-14T17:22:46Z</time>
      </trkpt>
      <trkpt lat="47.25101" lon="2.60428">
        <ele>251</ele>
        <time>2019-11-14T17:23:30Z</time>
      </trkpt>
      <trkpt lat="47.25275" lon="2.60553">
        <ele>262</ele>
        <time>2019-11-14T17:27:48Z</time>
      </trkpt>
      <trkpt lat="47.25349" lon="2.60597">
        <ele>269</ele>
        <time>2019-11-14T17:29:35Z</time>
      </trkpt>
      <trkpt lat="47.25434" lon="2.60632">
        <ele>276</ele>
        <time>2019-11-14T17:31:32Z</time>
      </trkpt>
      <trkpt lat="47.2544" lon="2.60695">
        <ele>278</ele>
        <time>2019-11-14T17:32:30Z</time>
      </trkpt>
      <trkpt lat="47.25457" lon="2.60781">
        <ele>280</ele>
        <time>2019-11-14T17:33:51Z</time>
      </trkpt>
      <trkpt lat="47.25465" lon="2.60845">
        <ele>281</ele>
        <time>2019-11-14T17:34:50Z</time>
      </trkpt>
      <trkpt lat="47.25475" lon="2.60909">
        <ele>280</ele>
        <time>2019-11-14T17:35:50Z</time>
      </trkpt>
      <trkpt lat="47.25489" lon="2.60954">
        <ele>281</ele>
        <time>2019-11-14T17:36:34Z</time>
      </trkpt>
      <trkpt lat="47.25519" lon="2.61006">
        <ele>283</ele>
        <time>2019-11-14T17:37:36Z</time>
      </trkpt>
      <trkpt lat="47.25554" lon="2.61057">
        <ele>285</ele>
        <time>2019-11-14T17:38:42Z</time>
      </trkpt>
      <trkpt lat="47.25584" lon="2.61093">
        <ele>287</ele>
        <time>2019-11-14T17:39:34Z</time>
      </trkpt>
      <trkpt lat="47.25606" lon="2.61137">
        <ele>287</ele>
        <time>2019-11-14T17:40:23Z</time>
      </trkpt>
      <trkpt lat="47.2563" lon="2.612">
        <ele>288</ele>
        <time>2019-11-14T17:41:29Z</time>
      </trkpt>
      <trkpt lat="47.25643" lon="2.61252">
        <ele>289</ele>
        <time>2019-11-14T17:42:19Z</time>
      </trkpt>
      <trkpt lat="47.25643" lon="2.61289">
        <ele>289</ele>
        <time>2019-11-14T17:42:52Z</time>
      </trkpt>
      <trkpt lat="47.25636" lon="2.61418">
        <ele>292</ele>
        <time>2019-11-14T17:44:49Z</time>
      </trkpt>
      <trkpt lat="47.25635" lon="2.61604">
        <ele>295</ele>
        <time>2019-11-14T17:47:38Z</time>
      </trkpt>
      <trkpt lat="47.25622" lon="2.61675">
        <ele>298</ele>
        <time>2019-11-14T17:48:45Z</time>
      </trkpt>
      <trkpt lat="47.25609" lon="2.61704">
        <ele>299</ele>
        <time>2019-11-14T17:49:16Z</time>
      </trkpt>
      <trkpt lat="47.25612" lon="2.61728">
        <ele>299</ele>
        <time>2019-11-14T17:49:38Z</time>
      </trkpt>
      <trkpt lat="47.25612" lon="2.61772">
        <ele>300</ele>
        <time>2019-11-14T17:50:18Z</time>
      </trkpt>
      <trkpt lat="47.25606" lon="2.6182">
        <ele>301</ele>
        <time>2019-11-14T17:51:02Z</time>
      </trkpt>
      <trkpt lat="47.25598" lon="2.6185">
        <ele>301</ele>
        <time>2019-11-14T17:51:31Z</time>
      </trkpt>
      <trkpt lat="47.25581" lon="2.61909">
        <ele>302</ele>
        <time>2019-11-14T17:52:29Z</time>
      </trkpt>
      <trkpt lat="47.25576" lon="2.61937">
        <ele>301</ele>
        <time>2019-11-14T17:52:56Z</time>
      </trkpt>
      <trkpt lat="47.25589" lon="2.61968">
        <ele>296</ele>
        <time>2019-11-14T17:53:29Z</time>
      </trkpt>
      <trkpt lat="47.25597" lon="2.62006">
        <ele>293</ele>
        <time>2019-11-14T17:54:05Z</time>
      </trkpt>
      <trkpt lat="47.25603" lon="2.62042">
        <ele>291</ele>
        <time>2019-11-14T17:54:38Z</time>
      </trkpt>
      <trkpt lat="47.2557" lon="2.6206">
        <ele>294</ele>
        <time>2019-11-14T17:55:25Z</time>
      </trkpt>
      <trkpt lat="47.25542" lon="2.62058">
        <ele>297</ele>
        <time>2019-11-14T17:56:03Z</time>
      </trkpt>
      <trkpt lat="47.25538" lon="2.62093">
        <ele>295</ele>
        <time>2019-11-14T17:56:35Z</time>
      </trkpt>
      <trkpt lat="47.25478" lon="2.62133">
        <ele>294</ele>
        <time>2019-11-14T17:58:03Z</time>
      </trkpt>
      <trkpt lat="47.25512" lon="2.62181">
        <ele>292</ele>
        <time>2019-11-14T17:59:05Z</time>
      </trkpt>
      <trkpt lat="47.25539" lon="2.62258">
        <ele>291</ele>
        <time>2019-11-14T18:00:24Z</time>
      </trkpt>
      <trkpt lat="47.25574" lon="2.62311">
        <ele>292</ele>
        <time>2019-11-14T18:01:31Z</time>
      </trkpt>
      <trkpt lat="47.25573" lon="2.62324">
        <ele>293</ele>
        <time>2019-11-14T18:01:43Z</time>
      </trkpt>
      <trkpt lat="47.25584" lon="2.62378">
        <ele>295</ele>
        <time>2019-11-14T18:02:34Z</time>
      </trkpt>
      <trkpt lat="47.25593" lon="2.62391">
        <ele>295</ele>
        <time>2019-11-14T18:02:51Z</time>
      </trkpt>
      <trkpt lat="47.25596" lon="2.62447">
        <ele>296</ele>
        <time>2019-11-14T18:03:42Z</time>
      </trkpt>
      <trkpt lat="47.25612" lon="2.6252">
        <ele>296</ele>
        <time>2019-11-14T18:04:51Z</time>
      </trkpt>
      <trkpt lat="47.25577" lon="2.62623">
        <ele>294</ele>
        <time>2019-11-14T18:06:35Z</time>
      </trkpt>
      <trkpt lat="47.2551" lon="2.62713">
        <ele>297</ele>
        <time>2019-11-14T18:08:36Z</time>
      </trkpt>
      <trkpt lat="47.2545" lon="2.62784">
        <ele>301</ele>
        <time>2019-11-14T18:10:19Z</time>
      </trkpt>
      <trkpt lat="47.25402" lon="2.62839">
        <ele>305</ele>
        <time>2019-11-14T18:11:40Z</time>
      </trkpt>
      <trkpt lat="47.25386" lon="2.6287">
        <ele>306</ele>
        <time>2019-11-14T18:12:15Z</time>
      </trkpt>
      <trkpt lat="47.25377" lon="2.6292">
        <ele>307</ele>
        <time>2019-11-14T18:13:02Z</time>
      </trkpt>
      <trkpt lat="47.25382" lon="2.62941">
        <ele>306</ele>
        <time>2019-11-14T18:13:22Z</time>
      </trkpt>
      <trkpt lat="47.25399" lon="2.62951">
        <ele>306</ele>
        <time>2019-11-14T18:13:47Z</time>
      </trkpt>
      <trkpt lat="47.25422" lon="2.6296">
        <ele>306</ele>
        <time>2019-11-14T18:14:19Z</time>
      </trkpt>
      <trkpt lat="47.25454" lon="2.6296">
        <ele>306</ele>
        <time>2019-11-14T18:15:01Z</time>
      </trkpt>
      <trkpt lat="47.25481" lon="2.62958">
        <ele>306</ele>
        <time>2019-11-14T18:15:37Z</time>
      </trkpt>
      <trkpt lat="47.25514" lon="2.62968">
        <ele>306</ele>
        <time>2019-11-14T18:16:22Z</time>
      </trkpt>
      <trkpt lat="47.25545" lon="2.62993">
        <ele>308</ele>
        <time>2019-11-14T18:17:10Z</time>
      </trkpt>
      <trkpt lat="47.2557" lon="2.63019">
        <ele>311</ele>
        <time>2019-11-14T18:17:50Z</time>
      </trkpt>
      <trkpt lat="47.25599" lon="2.63058">
        <ele>313</ele>
        <time>2019-11-14T18:18:43Z</time>
      </trkpt>
      <trkpt lat="47.25632" lon="2.63111">
        <ele>316</ele>
        <time>2019-11-14T18:19:48Z</time>
      </trkpt>
      <trkpt lat="47.25656" lon="2.63149">
        <ele>319</ele>
        <time>2019-11-14T18:20:35Z</time>
      </trkpt>
      <trkpt lat="47.25675" lon="2.6319">
        <ele>321</ele>
        <time>2019-11-14T18:21:20Z</time>
      </trkpt>
      <trkpt lat="47.25692" lon="2.63253">
        <ele>321</ele>
        <time>2019-11-14T18:22:21Z</time>
      </trkpt>
      <trkpt lat="47.25711" lon="2.63298">
        <ele>322</ele>
        <time>2019-11-14T18:23:09Z</time>
      </trkpt>
      <trkpt lat="47.25741" lon="2.6336">
        <ele>326</ele>
        <time>2019-11-14T18:24:18Z</time>
      </trkpt>
      <trkpt lat="47.25778" lon="2.63437">
        <ele>330</ele>
        <time>2019-11-14T18:25:44Z</time>
      </trkpt>
      <trkpt lat="47.25799" lon="2.63505">
        <ele>333</ele>
        <time>2019-11-14T18:26:51Z</time>
      </trkpt>
      <trkpt lat="47.25815" lon="2.63572">
        <ele>334</ele>
        <time>2019-11-14T18:27:56Z</time>
      </trkpt>
      <trkpt lat="47.25829" lon="2.63612">
        <ele>336</ele>
        <time>2019-11-14T18:28:37Z</time>
      </trkpt>
      <trkpt lat="47.25831" lon="2.63671">
        <ele>337</ele>
        <time>2019-11-14T18:29:30Z</time>
      </trkpt>
      <trkpt lat="47.25835" lon="2.63719">
        <ele>335</ele>
        <time>2019-11-14T18:30:14Z</time>
      </trkpt>
      <trkpt lat="47.25838" lon="2.63781">
        <ele>333</ele>
        <time>2019-11-14T18:31:10Z</time>
      </trkpt>
      <trkpt lat="47.2584" lon="2.63843">
        <ele>332</ele>
        <time>2019-11-14T18:32:06Z</time>
      </trkpt>
      <trkpt lat="47.25831" lon="2.63888">
        <ele>332</ele>
        <time>2019-11-14T18:32:49Z</time>
      </trkpt>
      <trkpt lat="47.25806" lon="2.63926">
        <ele>331</ele>
        <time>2019-11-14T18:33:37Z</time>
      </trkpt>
      <trkpt lat="47.25764" lon="2.63992">
        <ele>331</ele>
        <time>2019-11-14T18:34:59Z</time>
      </trkpt>
      <trkpt lat="47.25737" lon="2.64017">
        <ele>331</ele>
        <time>2019-11-14T18:35:41Z</time>
      </trkpt>
      <trkpt lat="47.25702" lon="2.64039">
        <ele>329</ele>
        <time>2019-11-14T18:36:32Z</time>
      </trkpt>
      <trkpt lat="47.25679" lon="2.64055">
        <ele>328</ele>
        <time>2019-11-14T18:37:06Z</time>
      </trkpt>
      <trkpt lat="47.25653" lon="2.6409">
        <ele>328</ele>
        <time>2019-11-14T18:37:53Z</time>
      </trkpt>
      <trkpt lat="47.25636" lon="2.64124">
        <ele>329</ele>
        <time>2019-11-14T18:38:31Z</time>
      </trkpt>
      <trkpt lat="47.25616" lon="2.64165">
        <ele>330</ele>
        <time>2019-11-14T18:39:17Z</time>
      </trkpt>
      <trkpt lat="47.25613" lon="2.64195">
        <ele>329</ele>
        <time>2019-11-14T18:39:44Z</time>
      </trkpt>
      <trkpt lat="47.2562" lon="2.64259">
        <ele>328</ele>
        <time>2019-11-14T18:40:43Z</time>
      </trkpt>
      <trkpt lat="47.2566" lon="2.64601">
        <ele>326</ele>
        <time>2019-11-14T18:45:57Z</time>
      </trkpt>
      <trkpt lat="47.2567" lon="2.64636">
        <ele>326</ele>
        <time>2019-11-14T18:46:32Z</time>
      </trkpt>
      <trkpt lat="47.25704" lon="2.64677">
        <ele>327</ele>
        <time>2019-11-14T18:47:30Z</time>
      </trkpt>
      <trkpt lat="47.25819" lon="2.64827">
        <ele>328</ele>
        <time>2019-11-14T18:50:55Z</time>
      </trkpt>
      <trkpt lat="47.25837" lon="2.64858">
        <ele>329</ele>
        <time>2019-11-14T18:51:32Z</time>
      </trkpt>
      <trkpt lat="47.25849" lon="2.64893">
        <ele>329</ele>
        <time>2019-11-14T18:52:08Z</time>
      </trkpt>
      <trkpt lat="47.25849" lon="2.64962">
        <ele>329</ele>
        <time>2019-11-14T18:53:10Z</time>
      </trkpt>
      <trkpt lat="47.25843" lon="2.65086">
        <ele>329</ele>
        <time>2019-11-14T18:55:03Z</time>
      </trkpt>
      <trkpt lat="47.25847" lon="2.65121">
        <ele>328</ele>
        <time>2019-11-14T18:55:35Z</time>
      </trkpt>
      <trkpt lat="47.25848" lon="2.65173">
        <ele>327</ele>
        <time>2019-11-14T18:56:22Z</time>
      </trkpt>
      <trkpt lat="47.25848" lon="2.65208">
        <ele>326</ele>
        <time>2019-11-14T18:56:54Z</time>
      </trkpt>
      <trkpt lat="47.25836" lon="2.65246">
        <ele>323</ele>
        <time>2019-11-14T18:57:32Z</time>
      </trkpt>
      <trkpt lat="47.25827" lon="2.65265">
        <ele>322</ele>
        <time>2019-11-14T18:57:53Z</time>
      </trkpt>
      <trkpt lat="47.25807" lon="2.65294">
        <ele>320</ele>
        <time>2019-11-14T18:58:30Z</time>
      </trkpt>
      <trkpt lat="47.25835" lon="2.65314">
        <ele>321</ele>
        <time>2019-11-14T18:59:12Z</time>
      </trkpt>
      <trkpt lat="47.25931" lon="2.65377">
        <ele>323</ele>
        <time>2019-11-14T19:01:32Z</time>
      </trkpt>
      <trkpt lat="47.25979" lon="2.65386">
        <ele>325</ele>
        <time>2019-11-14T19:02:37Z</time>
      </trkpt>
      <trkpt lat="47.26045" lon="2.65388">
        <ele>325</ele>
        <time>2019-11-14T19:04:05Z</time>
      </trkpt>
      <trkpt lat="47.26099" lon="2.65392">
        <ele>325</ele>
        <time>2019-11-14T19:05:17Z</time>
      </trkpt>
      <trkpt lat="47.26135" lon="2.65394">
        <ele>324</ele>
        <time>2019-11-14T19:06:05Z</time>
      </trkpt>
      <trkpt lat="47.26164" lon="2.65384">
        <ele>325</ele>
        <time>2019-11-14T19:06:45Z</time>
      </trkpt>
      <trkpt lat="47.26198" lon="2.65373">
        <ele>325</ele>
        <time>2019-11-14T19:07:31Z</time>
      </trkpt>
      <trkpt lat="47.26223" lon="2.65365">
        <ele>325</ele>
        <time>2019-11-14T19:08:05Z</time>
      </trkpt>
      <trkpt lat="47.2625" lon="2.65344">
        <ele>325</ele>
        <time>2019-11-14T19:08:46Z</time>
      </trkpt>
      <trkpt lat="47.26277" lon="2.65323">
        <ele>324</ele>
        <time>2019-11-14T19:09:27Z</time>
      </trkpt>
      <trkpt lat="47.26281" lon="2.65314">
        <ele>324</ele>
        <time>2019-11-14T19:09:37Z</time>
      </trkpt>
      <trkpt lat="47.26314" lon="2.65283">
        <ele>324</ele>
        <time>2019-11-14T19:10:29Z</time>
      </trkpt>
      <trkpt lat="47.26416" lon="2.65202">
        <ele>325</ele>
        <time>2019-11-14T19:13:03Z</time>
      </trkpt>
      <trkpt lat="47.26498" lon="2.65135">
        <ele>326</ele>
        <time>2019-11-14T19:15:09Z</time>
      </trkpt>
      <trkpt lat="47.26529" lon="2.65099">
        <ele>326</ele>
        <time>2019-11-14T19:16:01Z</time>
      </trkpt>
      <trkpt lat="47.26556" lon="2.6506">
        <ele>325</ele>
        <time>2019-11-14T19:16:52Z</time>
      </trkpt>
      <trkpt lat="47.26573" lon="2.65025">
        <ele>325</ele>
        <time>2019-11-14T19:17:31Z</time>
      </trkpt>
      <trkpt lat="47.26592" lon="2.65">
        <ele>324</ele>
        <time>2019-11-14T19:18:05Z</time>
      </trkpt>
      <trkpt lat="47.26618" lon="2.64985">
        <ele>322</ele>
        <time>2019-11-14T19:18:42Z</time>
      </trkpt>
      <trkpt lat="47.26796" lon="2.64974">
        <ele>316</ele>
        <time>2019-11-14T19:22:40Z</time>
      </trkpt>
      <trkpt lat="47.26837" lon="2.64973">
        <ele>316</ele>
        <time>2019-11-14T19:23:34Z</time>
      </trkpt>
      <trkpt lat="47.26859" lon="2.64982">
        <ele>315</ele>
        <time>2019-11-14T19:24:05Z</time>
      </trkpt>
      <trkpt lat="47.26881" lon="2.64995">
        <ele>315</ele>
        <time>2019-11-14T19:24:36Z</time>
      </trkpt>
      <trkpt lat="47.26971" lon="2.65127">
        <ele>317</ele>
        <time>2019-11-14T19:27:26Z</time>
      </trkpt>
      <trkpt lat="47.26986" lon="2.65149">
        <ele>317</ele>
        <time>2019-11-14T19:27:54Z</time>
      </trkpt>
      <trkpt lat="47.27005" lon="2.65154">
        <ele>318</ele>
        <time>2019-11-14T19:28:20Z</time>
      </trkpt>
      <trkpt lat="47.27024" lon="2.65153">
        <ele>319</ele>
        <time>2019-11-14T19:28:45Z</time>
      </trkpt>
      <trkpt lat="47.27347" lon="2.64984">
        <ele>324</ele>
        <time>2019-11-14T19:36:23Z</time>
      </trkpt>
      <trkpt lat="47.27382" lon="2.64974">
        <ele>324</ele>
        <time>2019-11-14T19:37:10Z</time>
      </trkpt>
      <trkpt lat="47.27423" lon="2.64964">
        <ele>325</ele>
        <time>2019-11-14T19:38:06Z</time>
      </trkpt>
      <trkpt lat="47.27444" lon="2.64958">
        <ele>326</ele>
        <time>2019-11-14T19:38:34Z</time>
      </trkpt>
      <trkpt lat="47.27463" lon="2.64957">
        <ele>326</ele>
        <time>2019-11-14T19:39:00Z</time>
      </trkpt>
      <trkpt lat="47.27582" lon="2.65123">
        <ele>310</ele>
        <time>2019-11-14T19:42:38Z</time>
      </trkpt>
      <trkpt lat="47.27588" lon="2.65141">
        <ele>309</ele>
        <time>2019-11-14T19:42:56Z</time>
      </trkpt>
      <trkpt lat="47.27592" lon="2.65202">
        <ele>307</ele>
        <time>2019-11-14T19:43:52Z</time>
      </trkpt>
      <trkpt lat="47.27607" lon="2.65275">
        <ele>305</ele>
        <time>2019-11-14T19:45:01Z</time>
      </trkpt>
      <trkpt lat="47.27615" lon="2.65328">
        <ele>303</ele>
        <time>2019-11-14T19:45:50Z</time>
      </trkpt>
      <trkpt lat="47.27615" lon="2.65384">
        <ele>303</ele>
        <time>2019-11-14T19:46:41Z</time>
      </trkpt>
      <trkpt lat="47.27621" lon="2.65442">
        <ele>303</ele>
        <time>2019-11-14T19:47:34Z</time>
      </trkpt>
      <trkpt lat="47.27636" lon="2.65452">
        <ele>303</ele>
        <time>2019-11-14T19:47:56Z</time>
      </trkpt>
      <trkpt lat="47.27649" lon="2.65453">
        <ele>302</ele>
        <time>2019-11-14T19:48:13Z</time>
      </trkpt>
      <trkpt lat="47.27659" lon="2.65454">
        <ele>302</ele>
        <time>2019-11-14T19:48:27Z</time>
      </trkpt>
      <trkpt lat="47.27677" lon="2.65463">
        <ele>301</ele>
        <time>2019-11-14T19:48:52Z</time>
      </trkpt>
      <trkpt lat="47.27717" lon="2.65491">
        <ele>300</ele>
        <time>2019-11-14T19:49:51Z</time>
      </trkpt>
      <trkpt lat="47.27775" lon="2.65553">
        <ele>297</ele>
        <time>2019-11-14T19:51:27Z</time>
      </trkpt>
      <trkpt lat="47.27835" lon="2.65592">
        <ele>292</ele>
        <time>2019-11-14T19:52:54Z</time>
      </trkpt>
      <trkpt lat="47.27853" lon="2.65614">
        <ele>292</ele>
        <time>2019-11-14T19:53:25Z</time>
      </trkpt>
      <trkpt lat="47.27863" lon="2.65635">
        <ele>292</ele>
        <time>2019-11-14T19:53:49Z</time>
      </trkpt>
      <trkpt lat="47.27888" lon="2.65699">
        <ele>293</ele>
        <time>2019-11-14T19:54:55Z</time>
      </trkpt>
      <trkpt lat="47.27912" lon="2.65744">
        <ele>293</ele>
        <time>2019-11-14T19:55:47Z</time>
      </trkpt>
      <trkpt lat="47.2795" lon="2.65699">
        <ele>289</ele>
        <time>2019-11-14T19:56:52Z</time>
      </trkpt>
      <trkpt lat="47.27976" lon="2.6567">
        <ele>286</ele>
        <time>2019-11-14T19:57:36Z</time>
      </trkpt>
      <trkpt lat="47.28008" lon="2.65642">
        <ele>284</ele>
        <time>2019-11-14T19:58:26Z</time>
      </trkpt>
      <trkpt lat="47.28035" lon="2.65626">
        <ele>282</ele>
        <time>2019-11-14T19:59:04Z</time>
      </trkpt>
      <trkpt lat="47.2805" lon="2.65622">
        <ele>282</ele>
        <time>2019-11-14T19:59:25Z</time>
      </trkpt>
      <trkpt lat="47.28063" lon="2.6563">
        <ele>281</ele>
        <time>2019-11-14T19:59:44Z</time>
      </trkpt>
      <trkpt lat="47.28091" lon="2.65642">
        <ele>280</ele>
        <time>2019-11-14T20:00:22Z</time>
      </trkpt>
      <trkpt lat="47.28112" lon="2.65645">
        <ele>280</ele>
        <time>2019-11-14T20:00:51Z</time>
      </trkpt>
      <trkpt lat="47.28133" lon="2.65648">
        <ele>280</ele>
        <time>2019-11-14T20:01:19Z</time>
      </trkpt>
      <trkpt lat="47.28186" lon="2.65623">
        <ele>282</ele>
        <time>2019-11-14T20:02:33Z</time>
      </trkpt>
      <trkpt lat="47.28223" lon="2.65591">
        <ele>285</ele>
        <time>2019-11-14T20:03:30Z</time>
      </trkpt>
      <trkpt lat="47.28243" lon="2.65667">
        <ele>287</ele>
        <time>2019-11-14T20:04:44Z</time>
      </trkpt>
      <trkpt lat="47.28263" lon="2.65746">
        <ele>292</ele>
        <time>2019-11-14T20:06:00Z</time>
      </trkpt>
      <trkpt lat="47.28287" lon="2.65822">
        <ele>295</ele>
        <time>2019-11-14T20:07:16Z</time>
      </trkpt>
      <trkpt lat="47.28252" lon="2.65924">
        <ele>291</ele>
        <time>2019-11-14T20:09:00Z</time>
      </trkpt>
      <trkpt lat="47.28217" lon="2.66032">
        <ele>286</ele>
        <time>2019-11-14T20:10:48Z</time>
      </trkpt>
      <trkpt lat="47.2818" lon="2.66153">
        <ele>281</ele>
        <time>2019-11-14T20:12:48Z</time>
      </trkpt>
      <trkpt lat="47.28152" lon="2.66254">
        <ele>279</ele>
        <time>2019-11-14T20:14:27Z</time>
      </trkpt>
      <trkpt lat="47.28127" lon="2.66349">
        <ele>277</ele>
        <time>2019-11-14T20:15:59Z</time>
      </trkpt>
      <trkpt lat="47.28084" lon="2.66758">
        <ele>265</ele>
        <time>2019-11-14T20:22:14Z</time>
      </trkpt>
      <trkpt lat="47.28073" lon="2.66844">
        <ele>264</ele>
        <time>2019-11-14T20:23:33Z</time>
      </trkpt>
      <trkpt lat="47.28028" lon="2.66997">
        <ele>264</ele>
        <time>2019-11-14T20:26:04Z</time>
      </trkpt>
      <trkpt lat="47.28016" lon="2.67048">
        <ele>264</ele>
        <time>2019-11-14T20:26:53Z</time>
      </trkpt>
      <trkpt lat="47.28015" lon="2.67105">
        <ele>265</ele>
        <time>2019-11-14T20:27:45Z</time>
      </trkpt>
      <trkpt lat="47.28064" lon="2.67241">
        <ele>269</ele>
        <time>2019-11-14T20:30:04Z</time>
      </trkpt>
      <trkpt lat="47.28104" lon="2.6734">
        <ele>276</ele>
        <time>2019-11-14T20:31:48Z</time>
      </trkpt>
      <trkpt lat="47.28115" lon="2.67418">
        <ele>278</ele>
        <time>2019-11-14T20:33:00Z</time>
      </trkpt>
      <trkpt lat="47.28114" lon="2.67495">
        <ele>282</ele>
        <time>2019-11-14T20:34:10Z</time>
      </trkpt>
      <trkpt lat="47.28099" lon="2.6754">
        <ele>284</ele>
        <time>2019-11-14T20:34:56Z</time>
      </trkpt>
      <trkpt lat="47.28071" lon="2.67596">
        <ele>285</ele>
        <time>2019-11-14T20:35:59Z</time>
      </trkpt>
      <trkpt lat="47.28038" lon="2.67641">
        <ele>288</ele>
        <time>2019-11-14T20:36:59Z</time>
      </trkpt>
      <trkpt lat="47.27845" lon="2.67819">
        <ele>299</ele>
        <time>2019-11-14T20:42:02Z</time>
      </trkpt>
      <trkpt lat="47.27985" lon="2.67878">
        <ele>301</ele>
        <time>2019-11-14T20:45:17Z</time>
      </trkpt>
      <trkpt lat="47.27978" lon="2.6793">
        <ele>304</ele>
        <time>2019-11-14T20:46:05Z</time>
      </trkpt>
      <trkpt lat="47.27969" lon="2.68011">
        <ele>307</ele>
        <time>2019-11-14T20:47:19Z</time>
      </trkpt>
      <trkpt lat="47.27994" lon="2.68064">
        <ele>307</ele>
        <time>2019-11-14T20:48:17Z</time>
      </trkpt>
      <trkpt lat="47.28018" lon="2.68094">
        <ele>306</ele>
        <time>2019-11-14T20:48:59Z</time>
      </trkpt>
      <trkpt lat="47.28023" lon="2.68174">
        <ele>304</ele>
        <time>2019-11-14T20:50:12Z</time>
      </trkpt>
      <trkpt lat="47.28029" lon="2.68242">
        <ele>301</ele>
        <time>2019-11-14T20:51:14Z</time>
      </trkpt>
      <trkpt lat="47.28047" lon="2.68311">
        <ele>301</ele>
        <time>2019-11-14T20:52:21Z</time>
      </trkpt>
      <trkpt lat="47.28108" lon="2.68371">
        <ele>302</ele>
        <time>2019-11-14T20:53:59Z</time>
      </trkpt>
      <trkpt lat="47.2804" lon="2.68426">
        <ele>305</ele>
        <time>2019-11-14T20:55:43Z</time>
      </trkpt>
      <trkpt lat="47.27962" lon="2.68482">
        <ele>310</ele>
        <time>2019-11-14T20:57:38Z</time>
      </trkpt>
      <trkpt lat="47.27902" lon="2.68511">
        <ele>313</ele>
        <time>2019-11-14T20:59:03Z</time>
      </trkpt>
      <trkpt lat="47.27829" lon="2.68551">
        <ele>317</ele>
        <time>2019-11-14T21:00:47Z</time>
      </trkpt>
      <trkpt lat="47.2759" lon="2.68622">
        <ele>321</ele>
        <time>2019-11-14T21:06:12Z</time>
      </trkpt>
      <trkpt lat="47.27605" lon="2.68646">
        <ele>320</ele>
        <time>2019-11-14T21:06:41Z</time>
      </trkpt>
      <trkpt lat="47.27661" lon="2.68697">
        <ele>317</ele>
        <time>2019-11-14T21:08:09Z</time>
      </trkpt>
      <trkpt lat="47.27692" lon="2.68776">
        <ele>313</ele>
        <time>2019-11-14T21:09:32Z</time>
      </trkpt>
      <trkpt lat="47.27727" lon="2.68895">
        <ele>306</ele>
        <time>2019-11-14T21:11:29Z</time>
      </trkpt>
      <trkpt lat="47.2775" lon="2.68987">
        <ele>304</ele>
        <time>2019-11-14T21:12:58Z</time>
      </trkpt>
      <trkpt lat="47.27732" lon="2.69117">
        <ele>298</ele>
        <time>2019-11-14T21:14:58Z</time>
      </trkpt>
      <trkpt lat="47.27725" lon="2.6922">
        <ele>294</ele>
        <time>2019-11-14T21:16:32Z</time>
      </trkpt>
      <trkpt lat="47.27716" lon="2.6931">
        <ele>291</ele>
        <time>2019-11-14T21:17:54Z</time>
      </trkpt>
      <trkpt lat="47.27723" lon="2.69404">
        <ele>289</ele>
        <time>2019-11-14T21:19:20Z</time>
      </trkpt>
      <trkpt lat="47.27755" lon="2.69496">
        <ele>286</ele>
        <time>2019-11-14T21:20:53Z</time>
      </trkpt>
      <trkpt lat="47.27793" lon="2.69572">
        <ele>283</ele>
        <time>2019-11-14T21:22:19Z</time>
      </trkpt>
      <trkpt lat="47.27826" lon="2.69637">
        <ele>280</ele>
        <time>2019-11-14T21:23:32Z</time>
      </trkpt>
      <trkpt lat="47.27843" lon="2.69707">
        <ele>278</ele>
        <time>2019-11-14T21:24:40Z</time>
      </trkpt>
      <trkpt lat="47.27849" lon="2.6977">
        <ele>276</ele>
        <time>2019-11-14T21:25:37Z</time>
      </trkpt>
      <trkpt lat="47.2784" lon="2.69839">
        <ele>274</ele>
        <time>2019-11-14T21:26:41Z</time>
      </trkpt>
      <trkpt lat="47.2783" lon="2.69888">
        <ele>271</ele>
        <time>2019-11-14T21:27:27Z</time>
      </trkpt>
      <trkpt lat="47.27849" lon="2.69975">
        <ele>268</ele>
        <time>2019-11-14T21:28:50Z</time>
      </trkpt>
      <trkpt lat="47.27837" lon="2.70005">
        <ele>267</ele>
        <time>2019-11-14T21:29:22Z</time>
      </trkpt>
      <trkpt lat="47.27821" lon="2.70068">
        <ele>263</ele>
        <time>2019-11-14T21:30:22Z</time>
      </trkpt>
      <trkpt lat="47.27799" lon="2.70135">
        <ele>260</ele>
        <time>2019-11-14T21:31:30Z</time>
      </trkpt>
      <trkpt lat="47.27776" lon="2.702">
        <ele>259</ele>
        <time>2019-11-14T21:32:36Z</time>
      </trkpt>
      <trkpt lat="47.27758" lon="2.70274">
        <ele>261</ele>
        <time>2019-11-14T21:33:47Z</time>
      </trkpt>
      <trkpt lat="47.27772" lon="2.70274">
        <ele>260</ele>
        <time>2019-11-14T21:34:06Z</time>
      </trkpt>
      <trkpt lat="47.27752" lon="2.70348">
        <ele>261</ele>
        <time>2019-11-14T21:35:18Z</time>
      </trkpt>
      <trkpt lat="47.2776" lon="2.70357">
        <ele>260</ele>
        <time>2019-11-14T21:35:32Z</time>
      </trkpt>
      <trkpt lat="47.27743" lon="2.704">
        <ele>260</ele>
        <time>2019-11-14T21:36:17Z</time>
      </trkpt>
      <trkpt lat="47.27738" lon="2.7046">
        <ele>260</ele>
        <time>2019-11-14T21:37:11Z</time>
      </trkpt>
      <trkpt lat="47.27818" lon="2.70527">
        <ele>259</ele>
        <time>2019-11-14T21:39:14Z</time>
      </trkpt>
      <trkpt lat="47.27852" lon="2.70521">
        <ele>258</ele>
        <time>2019-11-14T21:40:00Z</time>
      </trkpt>
      <trkpt lat="47.27905" lon="2.70546">
        <ele>258</ele>
        <time>2019-11-14T21:41:14Z</time>
      </trkpt>
      <trkpt lat="47.27939" lon="2.7057">
        <ele>258</ele>
        <time>2019-11-14T21:42:04Z</time>
      </trkpt>
      <trkpt lat="47.27973" lon="2.7061">
        <ele>258</ele>
        <time>2019-11-14T21:43:03Z</time>
      </trkpt>
      <trkpt lat="47.28012" lon="2.70674">
        <ele>258</ele>
        <time>2019-11-14T21:44:20Z</time>
      </trkpt>
      <trkpt lat="47.28098" lon="2.70693">
        <ele>254</ele>
        <time>2019-11-14T21:46:16Z</time>
      </trkpt>
      <trkpt lat="47.28127" lon="2.70725">
        <ele>254</ele>
        <time>2019-11-14T21:47:05Z</time>
      </trkpt>
      <trkpt lat="47.28167" lon="2.70756">
        <ele>254</ele>
        <time>2019-11-14T21:48:05Z</time>
      </trkpt>
      <trkpt lat="47.28195" lon="2.70828">
        <ele>254</ele>
        <time>2019-11-14T21:49:20Z</time>
      </trkpt>
      <trkpt lat="47.28214" lon="2.70896">
        <ele>254</ele>
        <time>2019-11-14T21:50:27Z</time>
      </trkpt>
      <trkpt lat="47.28241" lon="2.70983">
        <ele>255</ele>
        <time>2019-11-14T21:51:53Z</time>
      </trkpt>
      <trkpt lat="47.28334" lon="2.7131">
        <ele>267</ele>
        <time>2019-11-14T21:57:14Z</time>
      </trkpt>
      <trkpt lat="47.28419" lon="2.71531">
        <ele>274</ele>
        <time>2019-11-14T22:01:04Z</time>
      </trkpt>
      <trkpt lat="47.28498" lon="2.71714">
        <ele>262</ele>
        <time>2019-11-14T22:04:21Z</time>
      </trkpt>
      <trkpt lat="47.28515" lon="2.71788">
        <ele>259</ele>
        <time>2019-11-14T22:05:31Z</time>
      </trkpt>
      <trkpt lat="47.2853" lon="2.71916">
        <ele>256</ele>
        <time>2019-11-14T22:07:29Z</time>
      </trkpt>
      <trkpt lat="47.2854" lon="2.72028">
        <ele>255</ele>
        <time>2019-11-14T22:09:11Z</time>
      </trkpt>
      <trkpt lat="47.28559" lon="2.72136">
        <ele>254</ele>
        <time>2019-11-14T22:10:52Z</time>
      </trkpt>
      <trkpt lat="47.286" lon="2.72181">
        <ele>252</ele>
        <time>2019-11-14T22:12:01Z</time>
      </trkpt>
      <trkpt lat="47.28623" lon="2.72217">
        <ele>251</ele>
        <time>2019-11-14T22:12:45Z</time>
      </trkpt>
      <trkpt lat="47.28644" lon="2.72273">
        <ele>249</ele>
        <time>2019-11-14T22:13:43Z</time>
      </trkpt>
      <trkpt lat="47.28682" lon="2.72333">
        <ele>248</ele>
        <time>2019-11-14T22:14:58Z</time>
      </trkpt>
      <trkpt lat="47.28706" lon="2.72389">
        <ele>247</ele>
        <time>2019-11-14T22:15:58Z</time>
      </trkpt>
      <trkpt lat="47.28759" lon="2.72427">
        <ele>246</ele>
        <time>2019-11-14T22:17:16Z</time>
      </trkpt>
      <trkpt lat="47.28793" lon="2.72427">
        <ele>245</ele>
        <time>2019-11-14T22:18:02Z</time>
      </trkpt>
      <trkpt lat="47.28816" lon="2.72495">
        <ele>244</ele>
        <time>2019-11-14T22:19:10Z</time>
      </trkpt>
      <trkpt lat="47.28835" lon="2.72567">
        <ele>242</ele>
        <time>2019-11-14T22:20:20Z</time>
      </trkpt>
      <trkpt lat="47.28858" lon="2.7271">
        <ele>243</ele>
        <time>2019-11-14T22:22:33Z</time>
      </trkpt>
      <trkpt lat="47.28874" lon="2.72822">
        <ele>246</ele>
        <time>2019-11-14T22:24:17Z</time>
      </trkpt>
      <trkpt lat="47.28901" lon="2.72977">
        <ele>243</ele>
        <time>2019-11-14T22:26:42Z</time>
      </trkpt>
      <trkpt lat="47.28919" lon="2.73125">
        <ele>243</ele>
        <time>2019-11-14T22:28:58Z</time>
      </trkpt>
      <trkpt lat="47.28934" lon="2.73174">
        <ele>244</ele>
        <time>2019-11-14T22:29:46Z</time>
      </trkpt>
      <trkpt lat="47.28938" lon="2.73399">
        <ele>248</ele>
        <time>2019-11-14T22:33:10Z</time>
      </trkpt>
      <trkpt lat="47.28917" lon="2.73489">
        <ele>247</ele>
        <time>2019-11-14T22:34:36Z</time>
      </trkpt>
      <trkpt lat="47.28902" lon="2.73547">
        <ele>247</ele>
        <time>2019-11-14T22:35:33Z</time>
      </trkpt>
      <trkpt lat="47.28897" lon="2.73619">
        <ele>248</ele>
        <time>2019-11-14T22:36:38Z</time>
      </trkpt>
      <trkpt lat="47.28906" lon="2.73695">
        <ele>250</ele>
        <time>2019-11-14T22:37:48Z</time>
      </trkpt>
      <trkpt lat="47.289" lon="2.7385">
        <ele>251</ele>
        <time>2019-11-14T22:40:08Z</time>
      </trkpt>
      <trkpt lat="47.28918" lon="2.73892">
        <ele>251</ele>
        <time>2019-11-14T22:40:53Z</time>
      </trkpt>
      <trkpt lat="47.28927" lon="2.73933">
        <ele>250</ele>
        <time>2019-11-14T22:41:32Z</time>
      </trkpt>
      <trkpt lat="47.28908" lon="2.74004">
        <ele>248</ele>
        <time>2019-11-14T22:42:41Z</time>
      </trkpt>
      <trkpt lat="47.28859" lon="2.74103">
        <ele>247</ele>
        <time>2019-11-14T22:44:32Z</time>
      </trkpt>
      <trkpt lat="47.28797" lon="2.74294">
        <ele>249</ele>
        <time>2019-11-14T22:47:44Z</time>
      </trkpt>
      <trkpt lat="47.28763" lon="2.7439">
        <ele>251</ele>
        <time>2019-11-14T22:49:22Z</time>
      </trkpt>
      <trkpt lat="47.28717" lon="2.7446">
        <ele>250</ele>
        <time>2019-11-14T22:50:50Z</time>
      </trkpt>
      <trkpt lat="47.28705" lon="2.74527">
        <ele>250</ele>
        <time>2019-11-14T22:51:53Z</time>
      </trkpt>
      <trkpt lat="47.2871" lon="2.74652">
        <ele>249</ele>
        <time>2019-11-14T22:53:46Z</time>
      </trkpt>
      <trkpt lat="47.28812" lon="2.74677">
        <ele>249</ele>
        <time>2019-11-14T22:56:04Z</time>
      </trkpt>
      <trkpt lat="47.28886" lon="2.74693">
        <ele>252</ele>
        <time>2019-11-14T22:57:44Z</time>
      </trkpt>
      <trkpt lat="47.29036" lon="2.74698">
        <ele>254</ele>
        <time>2019-11-14T23:01:04Z</time>
      </trkpt>
      <trkpt lat="47.29111" lon="2.74696">
        <ele>255</ele>
        <time>2019-11-14T23:02:45Z</time>
      </trkpt>
      <trkpt lat="47.29162" lon="2.74675">
        <ele>256</ele>
        <time>2019-11-14T23:03:55Z</time>
      </trkpt>
      <trkpt lat="47.29213" lon="2.74675">
        <ele>256</ele>
        <time>2019-11-14T23:05:03Z</time>
      </trkpt>
      <trkpt lat="47.29316" lon="2.74689">
        <ele>256</ele>
        <time>2019-11-14T23:07:21Z</time>
      </trkpt>
      <trkpt lat="47.29592" lon="2.74745">
        <ele>260</ele>
        <time>2019-11-14T23:13:33Z</time>
      </trkpt>
      <trkpt lat="47.29623" lon="2.75014">
        <ele>258</ele>
        <time>2019-11-14T23:17:40Z</time>
      </trkpt>
      <trkpt lat="47.29657" lon="2.75118">
        <ele>259</ele>
        <time>2019-11-14T23:19:25Z</time>
      </trkpt>
      <trkpt lat="47.29679" lon="2.75211">
        <ele>261</ele>
        <time>2019-11-14T23:20:54Z</time>
      </trkpt>
      <trkpt lat="47.29705" lon="2.75337">
        <ele>263</ele>
        <time>2019-11-14T23:22:53Z</time>
      </trkpt>
      <trkpt lat="47.29759" lon="2.7547">
        <ele>264</ele>
        <time>2019-11-14T23:25:13Z</time>
      </trkpt>
      <trkpt lat="47.29808" lon="2.75562">
        <ele>264</ele>
        <time>2019-11-14T23:26:59Z</time>
      </trkpt>
      <trkpt lat="47.29871" lon="2.75741">
        <ele>255</ele>
        <time>2019-11-14T23:30:02Z</time>
      </trkpt>
      <trkpt lat="47.29907" lon="2.75826">
        <ele>249</ele>
        <time>2019-11-14T23:31:32Z</time>
      </trkpt>
      <trkpt lat="47.29925" lon="2.75873">
        <ele>250</ele>
        <time>2019-11-14T23:32:21Z</time>
      </trkpt>
      <trkpt lat="47.29911" lon="2.7594">
        <ele>252</ele>
        <time>2019-11-14T23:33:24Z</time>
      </trkpt>
      <trkpt lat="47.29923" lon="2.76005">
        <ele>257</ele>
        <time>2019-11-14T23:34:25Z</time>
      </trkpt>
      <trkpt lat="47.29934" lon="2.76091">
        <ele>258</ele>
        <time>2019-11-14T23:35:45Z</time>
      </trkpt>
      <trkpt lat="47.29925" lon="2.76162">
        <ele>253</ele>
        <time>2019-11-14T23:36:50Z</time>
      </trkpt>
      <trkpt lat="47.29937" lon="2.76232">
        <ele>248</ele>
        <time>2019-11-14T23:37:55Z</time>
      </trkpt>
      <trkpt lat="47.29973" lon="2.76252">
        <ele>247</ele>
        <time>2019-11-14T23:38:47Z</time>
      </trkpt>
      <trkpt lat="47.30041" lon="2.76249">
        <ele>246</ele>
        <time>2019-11-14T23:40:17Z</time>
      </trkpt>
      <trkpt lat="47.30076" lon="2.76237">
        <ele>246</ele>
        <time>2019-11-14T23:41:05Z</time>
      </trkpt>
      <trkpt lat="47.30114" lon="2.76248">
        <ele>245</ele>
        <time>2019-11-14T23:41:57Z</time>
      </trkpt>
      <trkpt lat="47.30158" lon="2.76293">
        <ele>242</ele>
        <time>2019-11-14T23:43:09Z</time>
      </trkpt>
      <trkpt lat="47.30223" lon="2.76346">
        <ele>246</ele>
        <time>2019-11-14T23:44:48Z</time>
      </trkpt>
      <trkpt lat="47.30325" lon="2.76432">
        <ele>248</ele>
        <time>2019-11-14T23:47:24Z</time>
      </trkpt>
      <trkpt lat="47.30409" lon="2.76459">
        <ele>250</ele>
        <time>2019-11-14T23:49:19Z</time>
      </trkpt>
      <trkpt lat="47.30492" lon="2.76463">
        <ele>253</ele>
        <time>2019-11-14T23:51:10Z</time>
      </trkpt>
      <trkpt lat="47.30554" lon="2.76456">
        <ele>255</ele>
        <time>2019-11-14T23:52:33Z</time>
      </trkpt>
      <trkpt lat="47.30609" lon="2.76468">
        <ele>255</ele>
        <time>2019-11-14T23:53:47Z</time>
      </trkpt>
      <trkpt lat="47.30647" lon="2.76481">
        <ele>255</ele>
        <time>2019-11-14T23:54:39Z</time>
      </trkpt>
      <trkpt lat="47.30652" lon="2.76512">
        <ele>255</ele>
        <time>2019-11-14T23:55:08Z</time>
      </trkpt>
      <trkpt lat="47.30684" lon="2.76526">
        <ele>255</ele>
        <time>2019-11-14T23:55:53Z</time>
      </trkpt>
      <trkpt lat="47.30696" lon="2.76595">
        <ele>256</ele>
        <time>2019-11-14T23:56:57Z</time>
      </trkpt>
      <trkpt lat="47.30718" lon="2.76631">
        <ele>257</ele>
        <time>2019-11-14T23:57:41Z</time>
      </trkpt>
      <trkpt lat="47.3073" lon="2.76672">
        <ele>259</ele>
        <time>2019-11-14T23:58:21Z</time>
      </trkpt>
      <trkpt lat="47.30719" lon="2.76723">
        <ele>263</ele>
        <time>2019-11-14T23:59:10Z</time>
      </trkpt>
      <trkpt lat="47.3069" lon="2.76894">
        <ele>285</ele>
        <time>2019-11-15T00:01:49Z</time>
      </trkpt>
      <trkpt lat="47.30681" lon="2.77149">
        <ele>325</ele>
        <time>2019-11-15T00:05:40Z</time>
      </trkpt>
      <trkpt lat="47.30683" lon="2.77208">
        <ele>330</ele>
        <time>2019-11-15T00:06:34Z</time>
      </trkpt>
      <trkpt lat="47.30697" lon="2.7725">
        <ele>334</ele>
        <time>2019-11-15T00:07:16Z</time>
      </trkpt>
      <trkpt lat="47.30683" lon="2.77336">
        <ele>338</ele>
        <time>2019-11-15T00:08:36Z</time>
      </trkpt>
      <trkpt lat="47.307" lon="2.77481">
        <ele>342</ele>
        <time>2019-11-15T00:10:49Z</time>
      </trkpt>
      <trkpt lat="47.30723" lon="2.77627">
        <ele>344</ele>
        <time>2019-11-15T00:13:05Z</time>
      </trkpt>
      <trkpt lat="47.30735" lon="2.77757">
        <ele>340</ele>
        <time>2019-11-15T00:15:04Z</time>
      </trkpt>
      <trkpt lat="47.30747" lon="2.77856">
        <ele>336</ele>
        <time>2019-11-15T00:16:35Z</time>
      </trkpt>
      <trkpt lat="47.30773" lon="2.77959">
        <ele>332</ele>
        <time>2019-11-15T00:18:14Z</time>
      </trkpt>
      <trkpt lat="47.30921" lon="2.78219">
        <ele>329</ele>
        <time>2019-11-15T00:23:21Z</time>
      </trkpt>
      <trkpt lat="47.30957" lon="2.78256">
        <ele>325</ele>
        <time>2019-11-15T00:24:20Z</time>
      </trkpt>
      <trkpt lat="47.30969" lon="2.78274">
        <ele>323</ele>
        <time>2019-11-15T00:24:43Z</time>
      </trkpt>
      <trkpt lat="47.3099" lon="2.78352">
        <ele>314</ele>
        <time>2019-11-15T00:25:59Z</time>
      </trkpt>
      <trkpt lat="47.31014" lon="2.78418">
        <ele>305</ele>
        <time>2019-11-15T00:27:06Z</time>
      </trkpt>
      <trkpt lat="47.30982" lon="2.78477">
        <ele>298</ele>
        <time>2019-11-15T00:28:15Z</time>
      </trkpt>
      <trkpt lat="47.30922" lon="2.78502">
        <ele>293</ele>
        <time>2019-11-15T00:29:38Z</time>
      </trkpt>
      <trkpt lat="47.30864" lon="2.7854">
        <ele>287</ele>
        <time>2019-11-15T00:31:03Z</time>
      </trkpt>
      <trkpt lat="47.30756" lon="2.78621">
        <ele>283</ele>
        <time>2019-11-15T00:33:44Z</time>
      </trkpt>
      <trkpt lat="47.30762" lon="2.78731">
        <ele>280</ele>
        <time>2019-11-15T00:35:24Z</time>
      </trkpt>
      <trkpt lat="47.3078" lon="2.78852">
        <ele>271</ele>
        <time>2019-11-15T00:37:16Z</time>
      </trkpt>
      <trkpt lat="47.30817" lon="2.78949">
        <ele>262</ele>
        <time>2019-11-15T00:38:57Z</time>
      </trkpt>
      <trkpt lat="47.30878" lon="2.7903">
        <ele>253</ele>
        <time>2019-11-15T00:40:47Z</time>
      </trkpt>
      <trkpt lat="47.30925" lon="2.79094">
        <ele>245</ele>
        <time>2019-11-15T00:42:12Z</time>
      </trkpt>
      <trkpt lat="47.30932" lon="2.79159">
        <ele>239</ele>
        <time>2019-11-15T00:43:11Z</time>
      </trkpt>
      <trkpt lat="47.30926" lon="2.79213">
        <ele>237</ele>
        <time>2019-11-15T00:44:01Z</time>
      </trkpt>
      <trkpt lat="47.31002" lon="2.7926">
        <ele>238</ele>
        <time>2019-11-15T00:45:51Z</time>
      </trkpt>
      <trkpt lat="47.31103" lon="2.79188">
        <ele>239</ele>
        <time>2019-11-15T00:48:21Z</time>
      </trkpt>
      <trkpt lat="47.31152" lon="2.79184">
        <ele>242</ele>
        <time>2019-11-15T00:49:26Z</time>
      </trkpt>
      <trkpt lat="47.3121" lon="2.79193">
        <ele>245</ele>
        <time>2019-11-15T00:50:44Z</time>
      </trkpt>
      <trkpt lat="47.3124" lon="2.792">
        <ele>247</ele>
        <time>2019-11-15T00:51:24Z</time>
      </trkpt>
      <trkpt lat="47.313" lon="2.792">
        <ele>250</ele>
        <time>2019-11-15T00:52:45Z</time>
      </trkpt>
      <trkpt lat="47.31393" lon="2.79182">
        <ele>251</ele>
        <time>2019-11-15T00:54:50Z</time>
      </trkpt>
      <trkpt lat="47.31435" lon="2.79175">
        <ele>253</ele>
        <time>2019-11-15T00:55:46Z</time>
      </trkpt>
      <trkpt lat="47.31513" lon="2.79091">
        <ele>251</ele>
        <time>2019-11-15T00:57:55Z</time>
      </trkpt>
      <trkpt lat="47.31519" lon="2.79045">
        <ele>252</ele>
        <time>2019-11-15T00:58:37Z</time>
      </trkpt>
      <trkpt lat="47.31555" lon="2.78966">
        <ele>255</ele>
        <time>2019-11-15T01:00:03Z</time>
      </trkpt>
      <trkpt lat="47.31603" lon="2.78902">
        <ele>256</ele>
        <time>2019-11-15T01:01:30Z</time>
      </trkpt>
      <trkpt lat="47.31694" lon="2.7882">
        <ele>260</ele>
        <time>2019-11-15T01:03:52Z</time>
      </trkpt>
      <trkpt lat="47.32037" lon="2.785">
        <ele>276</ele>
        <time>2019-11-15T01:12:54Z</time>
      </trkpt>
      <trkpt lat="47.32099" lon="2.7848">
        <ele>284</ele>
        <time>2019-11-15T01:14:18Z</time>
      </trkpt>
      <trkpt lat="47.3218" lon="2.78439">
        <ele>293</ele>
        <time>2019-11-15T01:16:13Z</time>
      </trkpt>
      <trkpt lat="47.32274" lon="2.78399">
        <ele>304</ele>
        <time>2019-11-15T01:18:23Z</time>
      </trkpt>
      <trkpt lat="47.32346" lon="2.78366">
        <ele>313</ele>
        <time>2019-11-15T01:20:04Z</time>
      </trkpt>
      <trkpt lat="47.32373" lon="2.78323">
        <ele>317</ele>
        <time>2019-11-15T01:20:57Z</time>
      </trkpt>
      <trkpt lat="47.32418" lon="2.7824">
        <ele>322</ele>
        <time>2019-11-15T01:22:33Z</time>
      </trkpt>
      <trkpt lat="47.32466" lon="2.78152">
        <ele>335</ele>
        <time>2019-11-15T01:24:15Z</time>
      </trkpt>
      <trkpt lat="47.3252" lon="2.78033">
        <ele>345</ele>
        <time>2019-11-15T01:26:25Z</time>
      </trkpt>
      <trkpt lat="47.32577" lon="2.77951">
        <ele>353</ele>
        <time>2019-11-15T01:28:11Z</time>
      </trkpt>
      <trkpt lat="47.32609" lon="2.77931">
        <ele>355</ele>
        <time>2019-11-15T01:28:57Z</time>
      </trkpt>
      <trkpt lat="47.32629" lon="2.77915">
        <ele>356</ele>
        <time>2019-11-15T01:29:28Z</time>
      </trkpt>
      <trkpt lat="47.32662" lon="2.77887">
        <ele>358</ele>
        <time>2019-11-15T01:30:18Z</time>
      </trkpt>
      <trkpt lat="47.32691" lon="2.77861">
        <ele>359</ele>
        <time>2019-11-15T01:31:04Z</time>
      </trkpt>
      <trkpt lat="47.32708" lon="2.77852">
        <ele>359</ele>
        <time>2019-11-15T01:31:28Z</time>
      </trkpt>
      <trkpt lat="47.32712" lon="2.77836">
        <ele>359</ele>
        <time>2019-11-15T01:31:43Z</time>
      </trkpt>
      <trkpt lat="47.3273" lon="2.77883">
        <ele>359</ele>
        <time>2019-11-15T01:32:32Z</time>
      </trkpt>
      <trkpt lat="47.32796" lon="2.77953">
        <ele>360</ele>
        <time>2019-11-15T01:34:21Z</time>
      </trkpt>
      <trkpt lat="47.32882" lon="2.78026">
        <ele>361</ele>
        <time>2019-11-15T01:36:33Z</time>
      </trkpt>
      <trkpt lat="47.32924" lon="2.78069">
        <ele>359</ele>
        <time>2019-11-15T01:37:41Z</time>
      </trkpt>
      <trkpt lat="47.32744" lon="2.78395">
        <ele>361</ele>
        <time>2019-11-15T01:44:02Z</time>
      </trkpt>
      <trkpt lat="47.32692" lon="2.78507">
        <ele>362</ele>
        <time>2019-11-15T01:46:04Z</time>
      </trkpt>
      <trkpt lat="47.32631" lon="2.78626">
        <ele>362</ele>
        <time>2019-11-15T01:48:19Z</time>
      </trkpt>
      <trkpt lat="47.32543" lon="2.7873">
        <ele>363</ele>
        <time>2019-11-15T01:50:50Z</time>
      </trkpt>
      <trkpt lat="47.32585" lon="2.78798">
        <ele>363</ele>
        <time>2019-11-15T01:52:13Z</time>
      </trkpt>
      <trkpt lat="47.3257" lon="2.78924">
        <ele>362</ele>
        <time>2019-11-15T01:54:09Z</time>
      </trkpt>
      <trkpt lat="47.32548" lon="2.79018">
        <ele>358</ele>
        <time>2019-11-15T01:55:39Z</time>
      </trkpt>
      <trkpt lat="47.32524" lon="2.7907">
        <ele>355</ele>
        <time>2019-11-15T01:56:36Z</time>
      </trkpt>
      <trkpt lat="47.32475" lon="2.79126">
        <ele>349</ele>
        <time>2019-11-15T01:57:58Z</time>
      </trkpt>
      <trkpt lat="47.32436" lon="2.79218">
        <ele>339</ele>
        <time>2019-11-15T01:59:36Z</time>
      </trkpt>
      <trkpt lat="47.32416" lon="2.79316">
        <ele>330</ele>
        <time>2019-11-15T02:01:09Z</time>
      </trkpt>
      <trkpt lat="47.32403" lon="2.79397">
        <ele>319</ele>
        <time>2019-11-15T02:02:24Z</time>
      </trkpt>
      <trkpt lat="47.32409" lon="2.79476">
        <ele>309</ele>
        <time>2019-11-15T02:03:36Z</time>
      </trkpt>
      <trkpt lat="47.32436" lon="2.79556">
        <ele>295</ele>
        <time>2019-11-15T02:04:57Z</time>
      </trkpt>
      <trkpt lat="47.32472" lon="2.79635">
        <ele>284</ele>
        <time>2019-11-15T02:06:23Z</time>
      </trkpt>
      <trkpt lat="47.32494" lon="2.79666">
        <ele>277</ele>
        <time>2019-11-15T02:07:04Z</time>
      </trkpt>
      <trkpt lat="47.32524" lon="2.79815">
        <ele>273</ele>
        <time>2019-11-15T02:09:24Z</time>
      </trkpt>
      <trkpt lat="47.32564" lon="2.8001">
        <ele>267</ele>
        <time>2019-11-15T02:12:29Z</time>
      </trkpt>
      <trkpt lat="47.32579" lon="2.80104">
        <ele>266</ele>
        <time>2019-11-15T02:13:56Z</time>
      </trkpt>
      <trkpt lat="47.32604" lon="2.80236">
        <ele>268</ele>
        <time>2019-11-15T02:16:00Z</time>
      </trkpt>
      <trkpt lat="47.32653" lon="2.80382">
        <ele>266</ele>
        <time>2019-11-15T02:18:27Z</time>
      </trkpt>
      <trkpt lat="47.32718" lon="2.80473">
        <ele>261</ele>
        <time>2019-11-15T02:20:27Z</time>
      </trkpt>
      <trkpt lat="47.3275" lon="2.80584">
        <ele>262</ele>
        <time>2019-11-15T02:22:16Z</time>
      </trkpt>
      <trkpt lat="47.32898" lon="2.8092">
        <ele>259</ele>
        <time>2019-11-15T02:28:18Z</time>
      </trkpt>
      <trkpt lat="47.3297" lon="2.81178">
        <ele>255</ele>
        <time>2019-11-15T02:32:31Z</time>
      </trkpt>
      <trkpt lat="47.33057" lon="2.81391">
        <ele>251</ele>
        <time>2019-11-15T02:36:16Z</time>
      </trkpt>
      <trkpt lat="47.33249" lon="2.81685">
        <ele>242</ele>
        <time>2019-11-15T02:42:25Z</time>
      </trkpt>
      <trkpt lat="47.33301" lon="2.81751">
        <ele>238</ele>
        <time>2019-11-15T02:43:57Z</time>
      </trkpt>
      <trkpt lat="47.33359" lon="2.8188">
        <ele>228</ele>
        <time>2019-11-15T02:46:17Z</time>
      </trkpt>
      <trkpt lat="47.33382" lon="2.81959">
        <ele>222</ele>
        <time>2019-11-15T02:47:34Z</time>
      </trkpt>
      <trkpt lat="47.33426" lon="2.82071">
        <ele>208</ele>
        <time>2019-11-15T02:49:31Z</time>
      </trkpt>
      <trkpt lat="47.335" lon="2.82169">
        <ele>191</ele>
        <time>2019-11-15T02:51:44Z</time>
      </trkpt>
      <trkpt lat="47.33487" lon="2.82222">
        <ele>189</ele>
        <time>2019-11-15T02:52:35Z</time>
      </trkpt>
      <trkpt lat="47.33454" lon="2.82295">
        <ele>186</ele>
        <time>2019-11-15T02:53:54Z</time>
      </trkpt>
      <trkpt lat="47.33387" lon="2.82399">
        <ele>180</ele>
        <time>2019-11-15T02:56:04Z</time>
      </trkpt>
      <trkpt lat="47.33326" lon="2.82475">
        <ele>179</ele>
        <time>2019-11-15T02:57:51Z</time>
      </trkpt>
      <trkpt lat="47.33249" lon="2.82591">
        <ele>176</ele>
        <time>2019-11-15T03:00:18Z</time>
      </trkpt>
      <trkpt lat="47.33185" lon="2.82697">
        <ele>179</ele>
        <time>2019-11-15T03:02:26Z</time>
      </trkpt>
      <trkpt lat="47.33147" lon="2.82764">
        <ele>185</ele>
        <time>2019-11-15T03:03:45Z</time>
      </trkpt>
      <trkpt lat="47.33123" lon="2.82821">
        <ele>192</ele>
        <time>2019-11-15T03:04:46Z</time>
      </trkpt>
      <trkpt lat="47.3312" lon="2.8289">
        <ele>196</ele>
        <time>2019-11-15T03:05:48Z</time>
      </trkpt>
      <trkpt lat="47.33097" lon="2.82962">
        <ele>202</ele>
        <time>2019-11-15T03:07:00Z</time>
      </trkpt>
      <trkpt lat="47.33051" lon="2.83033">
        <ele>216</ele>
        <time>2019-11-15T03:08:29Z</time>
      </trkpt>
    </trkseg>
  </trk>
</gpx>